createdAt,value
2018-09-09T00:01:55.028Z,63.10
2018-09-09T00:04:23.075Z,63.10
2018-09-09T00:06:51.126Z,63.00
2018-09-09T00:09:24.648Z,63.20
2018-09-09T00:11:52.761Z,63.40
2018-09-09T00:14:21.808Z,63.10
2018-09-09T00:16:50.033Z,63.80
2018-09-09T00:19:18.118Z,63.70
2018-09-09T00:21:46.256Z,63.70
2018-09-09T00:24:14.441Z,63.60
2018-09-09T00:26:42.524Z,63.90
2018-09-09T00:29:10.559Z,63.80
2018-09-09T00:31:38.653Z,63.90
2018-09-09T00:34:06.814Z,63.90
2018-09-09T00:36:34.968Z,63.70
2018-09-09T00:39:03.289Z,63.60
2018-09-09T00:41:31.351Z,63.60
2018-09-09T00:43:59.596Z,63.60
2018-09-09T00:46:27.654Z,63.20
2018-09-09T00:48:59.973Z,62.80
2018-09-09T00:51:33.618Z,62.50
2018-09-09T00:54:01.702Z,62.50
2018-09-09T00:56:29.770Z,62.60
2018-09-09T00:58:57.848Z,62.40
2018-09-09T01:01:25.955Z,62.60
2018-09-09T01:03:54.060Z,62.70
2018-09-09T01:06:22.123Z,62.90
2018-09-09T01:08:50.177Z,62.90
2018-09-09T01:11:18.247Z,62.90
2018-09-09T01:13:46.301Z,63.30
2018-09-09T01:16:14.371Z,63.00
2018-09-09T01:18:42.500Z,63.20
2018-09-09T01:21:10.643Z,62.90
2018-09-09T01:23:38.720Z,62.60
2018-09-09T01:26:06.835Z,62.60
2018-09-09T01:28:34.911Z,62.30
2018-09-09T01:31:02.983Z,62.10
2018-09-09T01:33:31.048Z,62.00
2018-09-09T01:35:59.165Z,62.10
2018-09-09T01:38:27.220Z,62.20
2018-09-09T01:40:55.305Z,61.90
2018-09-09T01:43:23.373Z,61.50
2018-09-09T01:45:51.444Z,61.40
2018-09-09T01:48:19.590Z,61.00
2018-09-09T01:50:47.692Z,60.90
2018-09-09T01:53:15.723Z,60.80
2018-09-09T01:55:43.836Z,61.00
2018-09-09T01:58:11.904Z,60.70
2018-09-09T02:00:40.027Z,61.00
2018-09-09T02:03:08.094Z,60.70
2018-09-09T02:05:36.170Z,61.60
2018-09-09T02:08:04.248Z,60.90
2018-09-09T02:10:32.320Z,60.70
2018-09-09T02:13:00.404Z,60.60
2018-09-09T02:15:28.503Z,60.60
2018-09-09T02:17:56.650Z,60.60
2018-09-09T02:20:24.749Z,60.50
2018-09-09T02:22:52.976Z,60.30
2018-09-09T02:25:21.139Z,60.10
2018-09-09T02:27:49.252Z,59.80
2018-09-09T02:30:17.334Z,59.60
2018-09-09T02:32:45.409Z,59.50
2018-09-09T02:35:13.498Z,59.50
2018-09-09T02:37:41.614Z,59.20
2018-09-09T02:40:09.681Z,59.30
2018-09-09T02:42:37.793Z,59.10
2018-09-09T02:45:05.825Z,59.10
2018-09-09T02:47:34.084Z,59.10
2018-09-09T02:50:02.144Z,59.30
2018-09-09T02:52:30.248Z,59.40
2018-09-09T02:54:58.330Z,59.30
2018-09-09T02:57:26.492Z,59.40
2018-09-09T02:59:54.594Z,59.30
2018-09-09T03:02:22.775Z,59.40
2018-09-09T03:04:50.842Z,59.30
2018-09-09T03:07:18.939Z,59.50
2018-09-09T03:09:46.995Z,60.20
2018-09-09T03:12:15.063Z,59.10
2018-09-09T03:14:43.195Z,59.30
2018-09-09T03:17:11.264Z,59.00
2018-09-09T03:19:39.338Z,58.70
2018-09-09T03:22:07.413Z,58.80
2018-09-09T03:24:35.456Z,58.70
2018-09-09T03:27:03.544Z,58.90
2018-09-09T03:29:31.674Z,58.20
2018-09-09T03:31:59.745Z,57.50
2018-09-09T03:34:27.800Z,58.00
2018-09-09T03:36:55.980Z,57.90
2018-09-09T03:39:24.113Z,57.80
2018-09-09T03:41:52.186Z,57.50
2018-09-09T03:44:20.259Z,57.90
2018-09-09T03:46:48.364Z,58.70
2018-09-09T03:49:16.432Z,58.00
2018-09-09T03:51:44.478Z,57.80
2018-09-09T03:54:12.606Z,57.90
2018-09-09T03:56:40.664Z,57.80
2018-09-09T03:59:08.746Z,58.00
2018-09-09T04:01:36.808Z,58.00
2018-09-09T04:04:04.954Z,58.00
2018-09-09T04:06:33.141Z,57.70
2018-09-09T04:09:01.200Z,57.70
2018-09-09T04:11:29.338Z,57.90
2018-09-09T04:13:57.471Z,58.10
2018-09-09T04:16:25.577Z,58.10
2018-09-09T04:18:53.661Z,58.30
2018-09-09T04:21:21.730Z,58.40
2018-09-09T04:23:49.832Z,58.80
2018-09-09T04:26:17.928Z,59.00
2018-09-09T04:28:45.999Z,59.70
2018-09-09T04:31:20.606Z,59.20
2018-09-09T04:33:48.769Z,59.50
2018-09-09T04:36:16.810Z,60.30
2018-09-09T04:38:44.894Z,59.90
2018-09-09T04:41:13.033Z,59.70
2018-09-09T04:43:41.173Z,60.40
2018-09-09T04:46:09.293Z,60.70
2018-09-09T04:48:37.362Z,60.90
2018-09-09T04:51:12.395Z,61.10
2018-09-09T04:53:40.505Z,61.10
2018-09-09T04:56:08.585Z,60.90
2018-09-09T04:58:36.673Z,61.10
2018-09-09T05:01:04.959Z,61.00
2018-09-09T05:03:33.052Z,61.20
2018-09-09T05:06:01.138Z,61.00
2018-09-09T05:08:29.265Z,61.10
2018-09-09T05:10:57.340Z,61.20
2018-09-09T05:13:25.442Z,61.00
2018-09-09T05:15:53.642Z,61.10
2018-09-09T05:18:21.734Z,60.80
2018-09-09T05:20:49.841Z,60.50
2018-09-09T05:23:17.932Z,60.40
2018-09-09T05:25:45.997Z,60.20
2018-09-09T05:28:14.076Z,59.90
2018-09-09T05:30:42.181Z,59.80
2018-09-09T05:33:10.241Z,59.40
2018-09-09T05:35:38.311Z,59.40
2018-09-09T05:38:06.481Z,59.10
2018-09-09T05:40:34.603Z,59.00
2018-09-09T05:43:02.655Z,59.10
2018-09-09T05:45:30.813Z,58.80
2018-09-09T05:47:58.884Z,58.70
2018-09-09T05:50:26.989Z,58.60
2018-09-09T05:52:55.028Z,58.60
2018-09-09T05:55:23.132Z,58.40
2018-09-09T05:57:51.296Z,58.40
2018-09-09T06:00:19.404Z,58.40
2018-09-09T06:02:47.473Z,58.60
2018-09-09T06:05:15.608Z,58.70
2018-09-09T06:07:43.707Z,58.30
2018-09-09T06:10:11.804Z,58.20
2018-09-09T06:12:39.872Z,58.30
2018-09-09T06:15:07.968Z,58.50
2018-09-09T06:17:36.044Z,58.50
2018-09-09T06:20:04.183Z,58.50
2018-09-09T06:22:32.261Z,58.10
2018-09-09T06:25:00.376Z,57.80
2018-09-09T06:27:28.622Z,57.70
2018-09-09T06:29:56.811Z,57.50
2018-09-09T06:32:24.961Z,57.50
2018-09-09T06:34:53.168Z,57.60
2018-09-09T06:37:28.033Z,57.80
2018-09-09T06:39:56.098Z,57.20
2018-09-09T06:42:24.182Z,57.10
2018-09-09T06:44:52.261Z,57.00
2018-09-09T06:47:20.327Z,56.80
2018-09-09T06:49:48.404Z,56.80
2018-09-09T06:52:16.435Z,56.70
2018-09-09T06:54:44.562Z,56.80
2018-09-09T06:57:12.808Z,56.50
2018-09-09T06:59:40.906Z,56.50
2018-09-09T07:02:08.996Z,56.40
2018-09-09T07:04:37.132Z,56.20
2018-09-09T07:07:05.303Z,55.70
2018-09-09T07:09:33.461Z,55.30
2018-09-09T07:12:01.639Z,55.10
2018-09-09T07:14:29.634Z,54.80
2018-09-09T07:16:57.698Z,54.90
2018-09-09T07:19:25.752Z,54.80
2018-09-09T07:21:53.832Z,54.70
2018-09-09T07:24:21.902Z,54.40
2018-09-09T07:26:50.041Z,54.10
2018-09-09T07:29:18.156Z,53.50
2018-09-09T07:31:46.288Z,53.10
2018-09-09T07:34:14.411Z,52.80
2018-09-09T07:36:42.443Z,52.80
2018-09-09T07:39:10.510Z,52.50
2018-09-09T07:41:38.601Z,52.20
2018-09-09T07:44:06.682Z,52.20
2018-09-09T07:46:34.806Z,52.00
2018-09-09T07:49:02.912Z,51.80
2018-09-09T07:51:31.016Z,50.80
2018-09-09T07:53:59.089Z,50.50
2018-09-09T07:56:27.180Z,50.60
2018-09-09T07:58:55.234Z,50.10
2018-09-09T08:01:23.302Z,50.00
2018-09-09T08:03:51.364Z,49.60
2018-09-09T08:06:19.437Z,49.30
2018-09-09T08:08:47.554Z,48.60
2018-09-09T08:11:15.635Z,48.60
2018-09-09T08:13:43.756Z,48.10
2018-09-09T08:16:11.915Z,48.00
2018-09-09T08:18:40.028Z,47.20
2018-09-09T08:21:08.156Z,46.80
2018-09-09T08:23:36.246Z,45.50
2018-09-09T08:26:04.333Z,45.40
2018-09-09T08:28:32.397Z,45.40
2018-09-09T08:31:00.468Z,44.50
2018-09-09T08:33:28.566Z,45.00
2018-09-09T08:35:56.680Z,45.20
2018-09-09T08:38:24.784Z,45.10
2018-09-09T08:40:52.902Z,44.70
2018-09-09T08:43:21.117Z,44.40
2018-09-09T08:45:49.317Z,44.50
2018-09-09T08:48:17.412Z,44.00
2018-09-09T08:50:45.516Z,44.50
2018-09-09T08:53:13.590Z,44.70
2018-09-09T08:55:41.676Z,43.50
2018-09-09T08:58:09.763Z,44.30
2018-09-09T09:00:37.864Z,44.10
2018-09-09T09:03:06.546Z,43.10
2018-09-09T09:05:34.652Z,42.80
2018-09-09T09:08:02.762Z,43.00
2018-09-09T09:10:30.956Z,42.90
2018-09-09T09:12:59.097Z,43.20
2018-09-09T09:15:27.219Z,42.90
2018-09-09T09:17:55.345Z,41.50
2018-09-09T09:20:23.459Z,40.30
2018-09-09T09:22:51.571Z,41.60
2018-09-09T09:25:19.642Z,41.20
2018-09-09T09:27:47.864Z,41.40
2018-09-09T09:30:15.967Z,39.70
2018-09-09T09:32:46.972Z,41.00
2018-09-09T09:35:15.043Z,40.60
2018-09-09T09:37:43.123Z,40.50
2018-09-09T09:40:11.204Z,39.50
2018-09-09T09:42:39.293Z,39.50
2018-09-09T09:45:07.364Z,39.80
2018-09-09T09:47:35.505Z,40.00
2018-09-09T09:50:03.681Z,40.40
2018-09-09T09:52:31.940Z,39.80
2018-09-09T09:55:00.293Z,39.50
2018-09-09T09:57:28.395Z,39.80
2018-09-09T09:59:56.498Z,39.60
2018-09-09T10:02:24.701Z,39.00
2018-09-09T10:04:53.178Z,39.70
2018-09-09T10:07:21.343Z,38.50
2018-09-09T10:09:49.457Z,38.50
2018-09-09T10:12:18.094Z,38.20
2018-09-09T10:14:46.205Z,38.10
2018-09-09T10:17:15.587Z,38.90
2018-09-09T10:19:43.696Z,36.70
2018-09-09T10:22:11.863Z,36.90
2018-09-09T10:24:39.979Z,37.60
2018-09-09T10:27:08.075Z,36.60
2018-09-09T10:29:36.185Z,35.80
2018-09-09T10:32:04.240Z,36.40
2018-09-09T10:34:32.327Z,35.70
2018-09-09T10:37:00.384Z,36.00
2018-09-09T10:39:28.511Z,34.30
2018-09-09T10:41:56.672Z,34.80
2018-09-09T10:44:24.845Z,33.20
2018-09-09T10:46:53.052Z,33.80
2018-09-09T10:49:21.788Z,34.30
2018-09-09T10:54:26.608Z,34.80
2018-09-09T10:56:54.650Z,33.80
2018-09-09T10:59:22.781Z,33.70
2018-09-09T11:01:50.888Z,33.60
2018-09-09T11:04:19.141Z,34.00
2018-09-09T11:06:47.388Z,32.70
2018-09-09T11:09:15.428Z,32.40
2018-09-09T11:11:43.492Z,32.10
2018-09-09T11:14:11.558Z,32.70
2018-09-09T11:16:39.623Z,32.70
2018-09-09T11:19:07.777Z,32.80
2018-09-09T11:21:35.951Z,32.00
2018-09-09T11:24:04.083Z,31.90
2018-09-09T11:26:32.332Z,31.30
2018-09-09T11:29:00.518Z,31.60
2018-09-09T11:31:28.812Z,31.00
2018-09-09T11:33:56.917Z,32.50
2018-09-09T11:36:25.068Z,33.10
2018-09-09T11:38:53.136Z,32.40
2018-09-09T11:41:21.200Z,30.90
2018-09-09T11:43:49.305Z,30.40
2018-09-09T11:46:17.754Z,31.70
2018-09-09T11:48:45.834Z,30.50
2018-09-09T11:51:13.912Z,30.40
2018-09-09T11:53:42.277Z,30.80
2018-09-09T11:56:10.391Z,30.50
2018-09-09T11:58:38.552Z,30.20
2018-09-09T12:01:06.626Z,29.90
2018-09-09T12:03:34.791Z,30.20
2018-09-09T12:06:02.920Z,30.20
2018-09-09T12:08:31.740Z,29.70
2018-09-09T12:10:59.791Z,29.70
2018-09-09T12:13:27.928Z,29.90
2018-09-09T12:15:56.343Z,29.80
2018-09-09T12:18:24.409Z,30.30
2018-09-09T12:20:52.481Z,29.50
2018-09-09T12:23:20.570Z,30.00
2018-09-09T12:25:49.426Z,30.60
2018-09-09T12:28:17.562Z,29.80
2018-09-09T12:30:45.993Z,29.90
2018-09-09T12:33:14.092Z,29.40
2018-09-09T12:35:42.194Z,29.60
2018-09-09T12:38:10.282Z,30.00
2018-09-09T12:40:38.979Z,30.00
2018-09-09T12:43:12.730Z,30.20
2018-09-09T12:45:46.339Z,29.60
2018-09-09T12:48:20.339Z,30.00
2018-09-09T12:50:48.450Z,30.40
2018-09-09T12:53:16.717Z,30.20
2018-09-09T12:55:44.984Z,29.50
2018-09-09T12:58:13.498Z,29.60
2018-09-09T13:00:41.607Z,29.90
2018-09-09T13:03:09.733Z,29.80
2018-09-09T13:05:37.781Z,29.40
2018-09-09T13:08:09.225Z,28.50
2018-09-09T13:10:37.575Z,28.50
2018-09-09T13:13:11.288Z,28.10
2018-09-09T13:15:39.389Z,28.30
2018-09-09T13:18:07.621Z,28.20
2018-09-09T13:20:35.739Z,27.50
2018-09-09T13:23:04.165Z,28.10
2018-09-09T13:25:32.336Z,26.80
2018-09-09T13:28:00.455Z,27.20
2018-09-09T13:30:29.580Z,26.80
2018-09-09T13:32:57.689Z,26.70
2018-09-09T13:35:25.831Z,26.60
2018-09-09T13:37:53.942Z,26.70
2018-09-09T13:40:22.150Z,27.40
2018-09-09T13:42:50.683Z,27.20
2018-09-09T13:45:18.895Z,27.60
2018-09-09T13:47:46.987Z,27.90
2018-09-09T13:50:15.424Z,27.30
2018-09-09T13:52:43.988Z,27.70
2018-09-09T13:55:12.184Z,28.40
2018-09-09T13:57:40.285Z,27.40
2018-09-09T14:00:08.541Z,28.50
2018-09-09T14:02:36.836Z,28.20
2018-09-09T14:05:04.928Z,27.20
2018-09-09T14:07:33.380Z,27.70
2018-09-09T14:10:01.512Z,28.10
2018-09-09T14:12:29.866Z,28.00
2018-09-09T14:14:58.004Z,27.80
2018-09-09T14:17:26.220Z,28.20
2018-09-09T14:19:54.404Z,28.10
2018-09-09T14:22:22.741Z,27.90
2018-09-09T14:24:51.089Z,27.80
2018-09-09T14:27:19.196Z,27.90
2018-09-09T14:29:47.644Z,28.30
2018-09-09T14:32:15.960Z,28.50
2018-09-09T14:34:44.206Z,28.60
2018-09-09T14:37:12.303Z,28.30
2018-09-09T14:39:40.468Z,28.30
2018-09-09T14:42:08.707Z,28.80
2018-09-09T14:44:36.829Z,29.20
2018-09-09T14:47:04.925Z,28.70
2018-09-09T14:49:33.019Z,28.90
2018-09-09T14:52:01.112Z,28.90
2018-09-09T14:54:29.230Z,29.30
2018-09-09T14:56:57.497Z,29.00
2018-09-09T14:59:25.599Z,29.00
2018-09-09T15:01:53.689Z,28.90
2018-09-09T15:04:21.775Z,29.30
2018-09-09T15:06:50.025Z,29.40
2018-09-09T15:09:18.066Z,29.40
2018-09-09T15:11:46.166Z,29.60
2018-09-09T15:14:14.269Z,29.20
2018-09-09T15:16:42.493Z,29.30
2018-09-09T15:19:10.416Z,29.80
2018-09-09T15:21:38.503Z,29.50
2018-09-09T15:24:06.598Z,29.80
2018-09-09T15:26:34.718Z,29.90
2018-09-09T15:29:02.931Z,29.80
2018-09-09T15:31:31.074Z,29.70
2018-09-09T15:33:59.161Z,29.90
2018-09-09T15:36:27.243Z,29.80
2018-09-09T15:38:55.350Z,30.00
2018-09-09T15:41:23.446Z,29.70
2018-09-09T15:43:51.535Z,29.40
2018-09-09T15:46:19.658Z,29.50
2018-09-09T15:48:47.991Z,29.30
2018-09-09T15:51:16.094Z,29.80
2018-09-09T15:53:44.178Z,29.60
2018-09-09T15:56:12.283Z,30.00
2018-09-09T15:58:40.418Z,30.00
2018-09-09T16:01:08.560Z,29.90
2018-09-09T16:03:36.632Z,30.00
2018-09-09T16:06:04.764Z,29.80
2018-09-09T16:08:32.855Z,29.70
2018-09-09T16:11:00.953Z,29.30
2018-09-09T16:13:29.028Z,29.30
2018-09-09T16:15:57.127Z,29.20
2018-09-09T16:18:25.216Z,29.70
2018-09-09T16:20:53.332Z,29.30
2018-09-09T16:23:21.442Z,29.40
2018-09-09T16:25:49.544Z,29.50
2018-09-09T16:28:17.960Z,30.00
2018-09-09T16:30:46.116Z,30.30
2018-09-09T16:33:14.200Z,30.30
2018-09-09T16:35:42.345Z,30.00
2018-09-09T16:38:10.461Z,30.20
2018-09-09T16:40:38.550Z,30.70
2018-09-09T16:43:06.623Z,30.60
2018-09-09T16:45:34.731Z,31.10
2018-09-09T16:48:02.815Z,31.40
2018-09-09T16:50:30.976Z,32.00
2018-09-09T16:52:59.087Z,32.30
2018-09-09T16:55:27.220Z,32.50
2018-09-09T16:57:55.296Z,32.90
2018-09-09T17:00:23.403Z,33.20
2018-09-09T17:02:51.455Z,33.00
2018-09-09T17:05:19.630Z,33.30
2018-09-09T17:07:47.776Z,33.90
2018-09-09T17:10:15.876Z,34.00
2018-09-09T17:12:43.976Z,34.50
2018-09-09T17:15:12.016Z,34.50
2018-09-09T17:17:40.082Z,34.60
2018-09-09T17:20:08.134Z,34.60
2018-09-09T17:22:36.267Z,34.80
2018-09-09T17:25:04.319Z,35.00
2018-09-09T17:27:32.484Z,35.30
2018-09-09T17:30:00.585Z,35.50
2018-09-09T17:32:28.638Z,35.60
2018-09-09T17:34:56.714Z,35.90
2018-09-09T17:37:24.815Z,36.20
2018-09-09T17:39:52.878Z,36.60
2018-09-09T17:42:21.012Z,37.10
2018-09-09T17:44:49.124Z,38.50
2018-09-09T17:47:17.263Z,38.10
2018-09-09T17:49:45.400Z,38.50
2018-09-09T17:52:13.533Z,38.80
2018-09-09T17:54:41.624Z,39.30
2018-09-09T17:57:09.730Z,39.90
2018-09-09T17:59:37.944Z,40.20
2018-09-09T18:02:06.095Z,40.70
2018-09-09T18:04:34.235Z,41.00
2018-09-09T18:07:02.415Z,41.60
2018-09-09T18:09:30.520Z,42.00
2018-09-09T18:11:58.891Z,42.30
2018-09-09T18:14:27.000Z,42.60
2018-09-09T18:16:55.097Z,43.20
2018-09-09T18:19:23.245Z,43.50
2018-09-09T18:21:51.351Z,44.60
2018-09-09T18:24:19.433Z,44.80
2018-09-09T18:26:47.514Z,45.00
2018-09-09T18:29:15.874Z,45.20
2018-09-09T18:31:43.975Z,45.60
2018-09-09T18:34:12.054Z,45.70
2018-09-09T18:36:40.134Z,45.80
2018-09-09T18:39:09.320Z,46.10
2018-09-09T18:41:37.395Z,46.40
2018-09-09T18:44:05.553Z,46.80
2018-09-09T18:46:33.783Z,47.20
2018-09-09T18:49:01.859Z,47.20
2018-09-09T18:51:30.032Z,47.40
2018-09-09T18:53:58.103Z,47.80
2018-09-09T18:56:26.189Z,48.00
2018-09-09T18:58:54.308Z,47.90
2018-09-09T19:01:22.439Z,48.20
2018-09-09T19:03:50.562Z,48.30
2018-09-09T19:06:18.696Z,48.60
2018-09-09T19:08:46.703Z,48.80
2018-09-09T19:13:49.635Z,49.40
2018-09-09T19:16:17.728Z,49.60
2018-09-09T19:18:45.800Z,50.00
2018-09-09T19:21:13.916Z,50.30
2018-09-09T19:23:42.012Z,51.20
2018-09-09T19:26:10.148Z,50.80
2018-09-09T19:28:38.295Z,50.90
2018-09-09T19:31:06.367Z,51.10
2018-09-09T19:33:34.486Z,51.10
2018-09-09T19:36:02.593Z,51.20
2018-09-09T19:38:30.695Z,51.80
2018-09-09T19:40:58.783Z,51.20
2018-09-09T19:43:26.895Z,51.60
2018-09-09T19:45:55.312Z,51.80
2018-09-09T19:48:23.801Z,51.80
2018-09-09T19:50:51.907Z,52.30
2018-09-09T19:53:19.986Z,52.50
2018-09-09T19:55:48.076Z,52.70
2018-09-09T19:58:16.234Z,52.70
2018-09-09T20:00:44.280Z,53.00
2018-09-09T20:03:12.389Z,53.10
2018-09-09T20:05:40.489Z,53.40
2018-09-09T20:08:08.562Z,53.50
2018-09-09T20:10:36.620Z,53.70
2018-09-09T20:13:04.771Z,54.00
2018-09-09T20:15:32.896Z,54.00
2018-09-09T20:18:00.960Z,54.30
2018-09-09T20:20:29.063Z,54.60
2018-09-09T20:22:57.173Z,54.50
2018-09-09T20:25:25.238Z,54.70
2018-09-09T20:27:53.349Z,54.70
2018-09-09T20:30:21.428Z,54.50
2018-09-09T20:32:49.758Z,54.70
2018-09-09T20:35:18.039Z,54.60
2018-09-09T20:37:46.124Z,54.70
2018-09-09T20:40:14.204Z,55.00
2018-09-09T20:42:42.250Z,55.20
2018-09-09T20:45:10.419Z,55.50
2018-09-09T20:47:38.515Z,55.60
2018-09-09T20:50:06.642Z,55.60
2018-09-09T20:52:34.748Z,55.80
2018-09-09T20:55:02.832Z,55.70
2018-09-09T20:57:31.466Z,56.00
2018-09-09T20:59:59.946Z,56.20
2018-09-09T21:02:28.156Z,56.10
2018-09-09T21:04:56.332Z,56.30
2018-09-09T21:07:24.400Z,56.40
2018-09-09T21:09:52.480Z,56.70
2018-09-09T21:12:20.581Z,56.80
2018-09-09T21:14:48.722Z,56.90
2018-09-09T21:17:16.819Z,57.10
2018-09-09T21:19:44.947Z,57.20
2018-09-09T21:22:13.238Z,57.20
2018-09-09T21:24:41.527Z,57.20
2018-09-09T21:27:09.571Z,57.30
2018-09-09T21:29:37.659Z,57.60
2018-09-09T21:32:06.320Z,57.70
2018-09-09T21:34:34.677Z,57.80
2018-09-09T21:37:03.614Z,57.60
2018-09-09T21:39:31.750Z,57.80
2018-09-09T21:41:59.852Z,58.00
2018-09-09T21:44:27.942Z,58.10
2018-09-09T21:46:56.023Z,58.50
2018-09-09T21:49:24.131Z,58.70
2018-09-09T21:51:52.192Z,58.80
2018-09-09T21:54:20.273Z,58.80
2018-09-09T21:56:48.488Z,59.00
2018-09-09T21:59:18.470Z,59.20
2018-09-09T22:01:52.576Z,59.40
2018-09-09T22:04:22.568Z,59.90
2018-09-09T22:06:50.606Z,59.80
2018-09-09T22:09:18.819Z,60.00
2018-09-09T22:11:46.867Z,60.10
2018-09-09T22:14:14.932Z,60.60
2018-09-09T22:16:43.362Z,60.60
2018-09-09T22:19:12.679Z,60.60
2018-09-09T22:21:40.748Z,60.90
2018-09-09T22:24:08.809Z,61.30
2018-09-09T22:26:36.862Z,61.00
2018-09-09T22:29:04.975Z,60.60
2018-09-09T22:31:33.085Z,60.90
2018-09-09T22:34:01.228Z,61.20
2018-09-09T22:36:29.300Z,61.10
2018-09-09T22:38:57.370Z,61.20
2018-09-09T22:41:25.440Z,61.40
2018-09-09T22:43:53.554Z,61.70
2018-09-09T22:46:21.640Z,61.90
2018-09-09T22:48:49.740Z,61.80
2018-09-09T22:51:17.849Z,61.80
2018-09-09T22:53:46.023Z,62.30
2018-09-09T22:56:14.082Z,62.30
2018-09-09T22:58:42.134Z,62.30
2018-09-09T23:01:10.221Z,62.70
2018-09-09T23:03:38.268Z,63.00
2018-09-09T23:06:06.365Z,63.00
2018-09-09T23:08:34.427Z,63.20
2018-09-09T23:11:02.519Z,63.30
2018-09-09T23:13:30.609Z,63.20
2018-09-09T23:15:58.721Z,63.00
2018-09-09T23:18:26.804Z,62.90
2018-09-09T23:20:54.911Z,62.80
2018-09-09T23:23:22.976Z,63.00
2018-09-09T23:25:51.061Z,64.00
2018-09-09T23:28:19.147Z,63.50
2018-09-09T23:30:53.909Z,63.70
2018-09-09T23:33:21.987Z,63.70
2018-09-09T23:35:50.136Z,63.90
2018-09-09T23:38:18.889Z,64.10
2018-09-09T23:40:47.055Z,64.30
2018-09-09T23:43:15.225Z,64.10
2018-09-09T23:45:43.367Z,64.10
2018-09-09T23:48:11.477Z,64.70
2018-09-09T23:50:39.561Z,64.80
2018-09-09T23:53:10.843Z,65.10
2018-09-09T23:55:38.971Z,65.20
2018-09-09T23:58:07.038Z,65.60
